sensor_id;sensor_type;location;lat;lon;timestamp;pressure;altitude;pressure_sealevel;temperature;humidity
64675;BME280;51090;51.512;11.332;2022-08-21T00:01:46;99515.44;;;24.31;nan
64675;BME280;51090;51.512;11.332;2022-08-21T00:04:12;99528.44;;;24.40;nan
64675;BME280;51090;51.512;11.332;2022-08-21T00:06:38;99511.13;;;24.30;nan
64675;BME280;51090;51.512;11.332;2022-08-21T00:09:06;99516.78;;;24.34;nan
64675;BME280;51090;51.512;11.332;2022-08-21T00:11:35;99518.94;;;24.37;nan
64675;BME280;51090;51.512;11.332;2022-08-21T00:14:02;99512.47;;;24.33;nan
64675;BME280;51090;51.512;11.332;2022-08-21T00:16:28;99512.72;;;24.37;nan
64675;BME280;51090;51.512;11.332;2022-08-21T00:18:53;99501.34;;;24.34;nan
64675;BME280;51090;51.512;11.332;2022-08-21T00:21:19;99495.38;;;24.38;nan
64675;BME280;51090;51.512;11.332;2022-08-21T00:23:45;99504.84;;;24.40;nan
64675;BME280;51090;51.512;11.332;2022-08-21T00:26:11;99502.97;;;24.41;nan
64675;BME280;51090;51.512;11.332;2022-08-21T00:28:36;99490.25;;;24.31;nan
64675;BME280;51090;51.512;11.332;2022-08-21T00:31:02;99501.34;;;24.34;nan
64675;BME280;51090;51.512;11.332;2022-08-21T00:33:30;99498.34;;;24.41;nan
64675;BME280;51090;51.512;11.332;2022-08-21T00:35:56;99475.59;;;24.32;nan
64675;BME280;51090;51.512;11.332;2022-08-21T00:38:22;99492.66;;;24.38;nan
64675;BME280;51090;51.512;11.332;2022-08-21T00:40:54;99491.84;;;24.42;nan
64675;BME280;51090;51.512;11.332;2022-08-21T00:43:25;99484.00;;;24.36;nan
64675;BME280;51090;51.512;11.332;2022-08-21T00:45:54;99489.13;;;24.37;nan
64675;BME280;51090;51.512;11.332;2022-08-21T00:48:22;99490.50;;;24.40;nan
64675;BME280;51090;51.512;11.332;2022-08-21T00:51:04;99484.53;;;24.38;nan
64675;BME280;51090;51.512;11.332;2022-08-21T00:53:30;99488.06;;;24.38;nan
64675;BME280;51090;51.512;11.332;2022-08-21T00:55:58;99482.69;;;24.23;nan
64675;BME280;51090;51.512;11.332;2022-08-21T00:58:26;99485.09;;;24.19;nan
64675;BME280;51090;51.512;11.332;2022-08-21T01:00:53;99486.47;;;24.11;nan
64675;BME280;51090;51.512;11.332;2022-08-21T01:03:22;99487.28;;;24.12;nan
64675;BME280;51090;51.512;11.332;2022-08-21T01:05:49;99490.53;;;24.04;nan
64675;BME280;51090;51.512;11.332;2022-08-21T01:08:16;99491.09;;;23.90;nan
64675;BME280;51090;51.512;11.332;2022-08-21T01:10:43;99499.47;;;23.89;nan
64675;BME280;51090;51.512;11.332;2022-08-21T01:13:10;99504.63;;;23.85;nan
64675;BME280;51090;51.512;11.332;2022-08-21T01:15:41;99493.53;;;23.77;nan
64675;BME280;51090;51.512;11.332;2022-08-21T01:18:09;99496.47;;;23.70;nan
64675;BME280;51090;51.512;11.332;2022-08-21T01:20:38;99501.34;;;23.63;nan
64675;BME280;51090;51.512;11.332;2022-08-21T01:23:05;99497.81;;;23.57;nan
64675;BME280;51090;51.512;11.332;2022-08-21T01:25:32;99499.47;;;23.53;nan
64675;BME280;51090;51.512;11.332;2022-08-21T01:28:07;99499.16;;;23.44;nan
64675;BME280;51090;51.512;11.332;2022-08-21T01:30:35;99506.22;;;23.45;nan
64675;BME280;51090;51.512;11.332;2022-08-21T01:33:02;99494.03;;;23.38;nan
64675;BME280;51090;51.512;11.332;2022-08-21T01:35:28;99492.09;;;23.28;nan
64675;BME280;51090;51.512;11.332;2022-08-21T01:37:53;99495.34;;;23.25;nan
64675;BME280;51090;51.512;11.332;2022-08-21T01:40:19;99494.78;;;23.18;nan
64675;BME280;51090;51.512;11.332;2022-08-21T01:42:46;99486.09;;;23.11;nan
64675;BME280;51090;51.512;11.332;2022-08-21T01:45:14;99487.19;;;23.10;nan
64675;BME280;51090;51.512;11.332;2022-08-21T01:47:40;99489.84;;;22.99;nan
64675;BME280;51090;51.512;11.332;2022-08-21T01:50:10;99494.44;;;23.04;nan
64675;BME280;51090;51.512;11.332;2022-08-21T01:52:36;99500.06;;;22.92;nan
64675;BME280;51090;51.512;11.332;2022-08-21T01:55:04;99504.91;;;22.90;nan
64675;BME280;51090;51.512;11.332;2022-08-21T01:57:31;99508.13;;;22.82;nan
64675;BME280;51090;51.512;11.332;2022-08-21T01:59:58;99499.44;;;22.75;nan
64675;BME280;51090;51.512;11.332;2022-08-21T02:02:24;99504.03;;;22.69;nan
64675;BME280;51090;51.512;11.332;2022-08-21T02:04:50;99503.44;;;22.62;nan
64675;BME280;51090;51.512;11.332;2022-08-21T02:07:16;99503.94;;;22.54;nan
64675;BME280;51090;51.512;11.332;2022-08-21T02:09:42;99493.59;;;22.41;nan
64675;BME280;51090;51.512;11.332;2022-08-21T02:12:09;99507.66;;;22.48;nan
64675;BME280;51090;51.512;11.332;2022-08-21T02:14:35;99511.72;;;22.45;nan
64675;BME280;51090;51.512;11.332;2022-08-21T02:17:01;99504.66;;;22.39;nan
64675;BME280;51090;51.512;11.332;2022-08-21T02:19:26;99511.16;;;22.38;nan
64675;BME280;51090;51.512;11.332;2022-08-21T02:21:52;99508.38;;;22.28;nan
64675;BME280;51090;51.512;11.332;2022-08-21T02:24:18;99509.44;;;22.27;nan
64675;BME280;51090;51.512;11.332;2022-08-21T02:26:43;99510.78;;;22.24;nan
64675;BME280;51090;51.512;11.332;2022-08-21T02:29:09;99503.94;;;22.16;nan
64675;BME280;51090;51.512;11.332;2022-08-21T02:31:35;99511.56;;;22.20;nan
64675;BME280;51090;51.512;11.332;2022-08-21T02:34:01;99512.56;;;22.13;nan
64675;BME280;51090;51.512;11.332;2022-08-21T02:36:26;99503.84;;;22.06;nan
64675;BME280;51090;51.512;11.332;2022-08-21T02:38:52;99511.16;;;22.06;nan
64675;BME280;51090;51.512;11.332;2022-08-21T02:41:20;99510.59;;;22.04;nan
64675;BME280;51090;51.512;11.332;2022-08-21T02:43:47;99510.06;;;22.02;nan
64675;BME280;51090;51.512;11.332;2022-08-21T02:46:16;99495.19;;;21.99;nan
64675;BME280;51090;51.512;11.332;2022-08-21T02:48:42;99504.56;;;21.91;nan
64675;BME280;51090;51.512;11.332;2022-08-21T02:51:16;99503.25;;;21.94;nan
64675;BME280;51090;51.512;11.332;2022-08-21T02:53:47;99505.38;;;21.92;nan
64675;BME280;51090;51.512;11.332;2022-08-21T02:56:19;99499.66;;;21.88;nan
64675;BME280;51090;51.512;11.332;2022-08-21T02:58:48;99493.97;;;21.85;nan
64675;BME280;51090;51.512;11.332;2022-08-21T03:01:15;99499.38;;;21.85;nan
64675;BME280;51090;51.512;11.332;2022-08-21T03:03:43;99500.19;;;21.85;nan
64675;BME280;51090;51.512;11.332;2022-08-21T03:06:13;99495.06;;;21.84;nan
64675;BME280;51090;51.512;11.332;2022-08-21T03:08:40;99483.06;;;21.69;nan
64675;BME280;51090;51.512;11.332;2022-08-21T03:11:06;99487.13;;;21.72;nan
64675;BME280;51090;51.512;11.332;2022-08-21T03:13:31;99486.00;;;21.68;nan
64675;BME280;51090;51.512;11.332;2022-08-21T03:15:57;99491.66;;;21.66;nan
64675;BME280;51090;51.512;11.332;2022-08-21T03:18:23;99490.03;;;21.65;nan
64675;BME280;51090;51.512;11.332;2022-08-21T03:20:49;99494.00;;;21.58;nan
64675;BME280;51090;51.512;11.332;2022-08-21T03:23:16;99486.69;;;21.53;nan
64675;BME280;51090;51.512;11.332;2022-08-21T03:25:44;99491.81;;;21.55;nan
64675;BME280;51090;51.512;11.332;2022-08-21T03:28:16;99513.16;;;21.56;nan
64675;BME280;51090;51.512;11.332;2022-08-21T03:30:44;99503.38;;;21.50;nan
64675;BME280;51090;51.512;11.332;2022-08-21T03:33:10;99502.47;;;21.39;nan
64675;BME280;51090;51.512;11.332;2022-08-21T03:35:36;99509.50;;;21.40;nan
64675;BME280;51090;51.512;11.332;2022-08-21T03:38:02;99511.63;;;21.38;nan
64675;BME280;51090;51.512;11.332;2022-08-21T03:40:28;99509.41;;;21.35;nan
64675;BME280;51090;51.512;11.332;2022-08-21T03:42:54;99511.78;;;21.31;nan
64675;BME280;51090;51.512;11.332;2022-08-21T03:45:21;99505.34;;;21.33;nan
64675;BME280;51090;51.512;11.332;2022-08-21T03:48:02;99507.53;;;21.36;nan
64675;BME280;51090;51.512;11.332;2022-08-21T03:50:32;99507.16;;;21.27;nan
64675;BME280;51090;51.512;11.332;2022-08-21T03:52:59;99497.03;;;21.12;nan
64675;BME280;51090;51.512;11.332;2022-08-21T03:55:26;99518.66;;;21.17;nan
64675;BME280;51090;51.512;11.332;2022-08-21T03:57:52;99491.53;;;21.02;nan
64675;BME280;51090;51.512;11.332;2022-08-21T04:00:19;99513.22;;;21.12;nan
64675;BME280;51090;51.512;11.332;2022-08-21T04:02:45;99506.69;;;21.08;nan
64675;BME280;51090;51.512;11.332;2022-08-21T04:05:13;99509.94;;;21.10;nan
64675;BME280;51090;51.512;11.332;2022-08-21T04:07:54;99512.88;;;21.08;nan
64675;BME280;51090;51.512;11.332;2022-08-21T04:10:20;99516.31;;;21.04;nan
64675;BME280;51090;51.512;11.332;2022-08-21T04:12:46;99516.03;;;21.00;nan
64675;BME280;51090;51.512;11.332;2022-08-21T04:15:11;99517.91;;;21.00;nan
64675;BME280;51090;51.512;11.332;2022-08-21T04:17:38;99520.03;;;20.98;nan
64675;BME280;51090;51.512;11.332;2022-08-21T04:20:04;99516.03;;;21.00;nan
64675;BME280;51090;51.512;11.332;2022-08-21T04:22:30;99529.75;;;20.99;nan
64675;BME280;51090;51.512;11.332;2022-08-21T04:24:56;99520.56;;;20.95;nan
64675;BME280;51090;51.512;11.332;2022-08-21T04:27:21;99525.44;;;20.98;nan
64675;BME280;51090;51.512;11.332;2022-08-21T04:29:47;99524.06;;;20.95;nan
64675;BME280;51090;51.512;11.332;2022-08-21T04:32:13;99524.56;;;20.92;nan
64675;BME280;51090;51.512;11.332;2022-08-21T04:34:38;99521.28;;;20.90;nan
64675;BME280;51090;51.512;11.332;2022-08-21T04:37:04;99510.78;;;20.88;nan
64675;BME280;51090;51.512;11.332;2022-08-21T04:39:30;99521.94;;;20.97;nan
64675;BME280;51090;51.512;11.332;2022-08-21T04:41:56;99527.88;;;20.99;nan
64675;BME280;51090;51.512;11.332;2022-08-21T04:44:22;99534.31;;;20.98;nan
64675;BME280;51090;51.512;11.332;2022-08-21T04:46:48;99535.72;;;21.01;nan
64675;BME280;51090;51.512;11.332;2022-08-21T04:49:14;99539.84;;;21.08;nan
64675;BME280;51090;51.512;11.332;2022-08-21T04:51:40;99541.22;;;21.11;nan
64675;BME280;51090;51.512;11.332;2022-08-21T04:54:14;99546.44;;;21.18;nan
64675;BME280;51090;51.512;11.332;2022-08-21T04:56:54;99523.38;;;21.05;nan
64675;BME280;51090;51.512;11.332;2022-08-21T04:59:26;99553.72;;;21.17;nan
64675;BME280;51090;51.512;11.332;2022-08-21T05:01:53;99540.59;;;21.04;nan
64675;BME280;51090;51.512;11.332;2022-08-21T05:04:28;99539.59;;;21.10;nan
64675;BME280;51090;51.512;11.332;2022-08-21T05:06:57;99562.69;;;21.23;nan
64675;BME280;51090;51.512;11.332;2022-08-21T05:09:25;99562.22;;;21.09;nan
64675;BME280;51090;51.512;11.332;2022-08-21T05:11:52;99567.38;;;21.10;nan
64675;BME280;51090;51.512;11.332;2022-08-21T05:14:18;99569.38;;;21.20;nan
64675;BME280;51090;51.512;11.332;2022-08-21T05:16:45;99554.53;;;21.18;nan
64675;BME280;51090;51.512;11.332;2022-08-21T05:19:11;99576.28;;;21.33;nan
64675;BME280;51090;51.512;11.332;2022-08-21T05:21:41;99568.84;;;21.40;nan
64675;BME280;51090;51.512;11.332;2022-08-21T05:24:07;99568.50;;;21.37;nan
64675;BME280;51090;51.512;11.332;2022-08-21T05:26:33;99566.88;;;21.36;nan
64675;BME280;51090;51.512;11.332;2022-08-21T05:28:59;99574.47;;;21.39;nan
64675;BME280;51090;51.512;11.332;2022-08-21T05:31:25;99577.38;;;21.37;nan
64675;BME280;51090;51.512;11.332;2022-08-21T05:33:50;99555.28;;;21.35;nan
64675;BME280;51090;51.512;11.332;2022-08-21T05:36:18;99577.97;;;21.61;nan
64675;BME280;51090;51.512;11.332;2022-08-21T05:38:44;99580.22;;;21.69;nan
64675;BME280;51090;51.512;11.332;2022-08-21T05:41:09;99579.22;;;21.81;nan
64675;BME280;51090;51.512;11.332;2022-08-21T05:43:36;99582.88;;;21.91;nan
64675;BME280;51090;51.512;11.332;2022-08-21T05:46:06;99583.41;;;21.93;nan
64675;BME280;51090;51.512;11.332;2022-08-21T05:48:33;99586.56;;;21.85;nan
64675;BME280;51090;51.512;11.332;2022-08-21T05:51:10;99587.66;;;21.84;nan
64675;BME280;51090;51.512;11.332;2022-08-21T05:53:36;99588.16;;;21.81;nan
64675;BME280;51090;51.512;11.332;2022-08-21T05:56:03;99575.09;;;21.73;nan
64675;BME280;51090;51.512;11.332;2022-08-21T05:58:31;99575.06;;;21.68;nan
64675;BME280;51090;51.512;11.332;2022-08-21T06:00:58;99581.78;;;21.65;nan
64675;BME280;51090;51.512;11.332;2022-08-21T06:03:27;99580.22;;;21.69;nan
64675;BME280;51090;51.512;11.332;2022-08-21T06:05:54;99566.63;;;21.59;nan
64675;BME280;51090;51.512;11.332;2022-08-21T06:08:21;99579.47;;;21.74;nan
64675;BME280;51090;51.512;11.332;2022-08-21T06:10:50;99581.13;;;21.80;nan
64675;BME280;51090;51.512;11.332;2022-08-21T06:13:18;99580.66;;;21.88;nan
64675;BME280;51090;51.512;11.332;2022-08-21T06:15:44;99577.75;;;21.95;nan
64675;BME280;51090;51.512;11.332;2022-08-21T06:18:10;99590.31;;;22.11;nan
64675;BME280;51090;51.512;11.332;2022-08-21T06:20:37;99582.88;;;22.24;nan
64675;BME280;51090;51.512;11.332;2022-08-21T06:23:03;99591.22;;;22.54;nan
64675;BME280;51090;51.512;11.332;2022-08-21T06:25:29;99585.91;;;22.70;nan
64675;BME280;51090;51.512;11.332;2022-08-21T06:28:05;99583.91;;;22.92;nan
64675;BME280;51090;51.512;11.332;2022-08-21T06:30:31;99586.66;;;22.97;nan
64675;BME280;51090;51.512;11.332;2022-08-21T06:32:57;99583.25;;;23.22;nan
64675;BME280;51090;51.512;11.332;2022-08-21T06:35:23;99584.38;;;23.42;nan
64675;BME280;51090;51.512;11.332;2022-08-21T06:37:50;99584.69;;;23.61;nan
64675;BME280;51090;51.512;11.332;2022-08-21T06:40:17;99583.38;;;23.68;nan
64675;BME280;51090;51.512;11.332;2022-08-21T06:42:43;99577.44;;;23.72;nan
64675;BME280;51090;51.512;11.332;2022-08-21T06:45:10;99587.25;;;23.98;nan
64675;BME280;51090;51.512;11.332;2022-08-21T06:47:36;99588.06;;;24.14;nan
64675;BME280;51090;51.512;11.332;2022-08-21T06:50:01;99582.09;;;24.32;nan
64675;BME280;51090;51.512;11.332;2022-08-21T06:52:28;99581.59;;;24.46;nan
64675;BME280;51090;51.512;11.332;2022-08-21T06:54:53;99573.47;;;24.46;nan
64675;BME280;51090;51.512;11.332;2022-08-21T06:57:19;99579.69;;;24.51;nan
64675;BME280;51090;51.512;11.332;2022-08-21T06:59:45;99557.19;;;24.30;nan
64675;BME280;51090;51.512;11.332;2022-08-21T07:02:10;99569.91;;;24.30;nan
64675;BME280;51090;51.512;11.332;2022-08-21T07:04:36;99576.66;;;24.27;nan
64675;BME280;51090;51.512;11.332;2022-08-21T07:07:02;99574.81;;;24.28;nan
64675;BME280;51090;51.512;11.332;2022-08-21T07:09:28;99570.44;;;24.17;nan
64675;BME280;51090;51.512;11.332;2022-08-21T07:11:55;99570.44;;;24.37;nan
64675;BME280;51090;51.512;11.332;2022-08-21T07:14:22;99563.41;;;24.57;nan
64675;BME280;51090;51.512;11.332;2022-08-21T07:16:49;99569.59;;;24.77;nan
64675;BME280;51090;51.512;11.332;2022-08-21T07:19:14;99555.16;;;24.97;nan
64675;BME280;51090;51.512;11.332;2022-08-21T07:21:40;99565.38;;;25.26;nan
64675;BME280;51090;51.512;11.332;2022-08-21T07:24:06;99563.69;;;25.35;nan
64675;BME280;51090;51.512;11.332;2022-08-21T07:26:32;99564.53;;;25.36;nan
64675;BME280;51090;51.512;11.332;2022-08-21T07:28:58;99556.84;;;25.48;nan
64675;BME280;51090;51.512;11.332;2022-08-21T07:31:25;99544.31;;;25.57;nan
64675;BME280;51090;51.512;11.332;2022-08-21T07:33:51;99558.94;;;25.61;nan
64675;BME280;51090;51.512;11.332;2022-08-21T07:36:17;99554.56;;;25.66;nan
64675;BME280;51090;51.512;11.332;2022-08-21T07:38:43;99562.06;;;25.79;nan
64675;BME280;51090;51.512;11.332;2022-08-21T07:41:20;99561.94;;;25.99;nan
64675;BME280;51090;51.512;11.332;2022-08-21T07:43:46;99556.44;;;26.10;nan
64675;BME280;51090;51.512;11.332;2022-08-21T07:46:13;99557.06;;;26.31;nan
64675;BME280;51090;51.512;11.332;2022-08-21T07:48:39;99543.31;;;26.46;nan
64675;BME280;51090;51.512;11.332;2022-08-21T07:51:11;99553.22;;;26.66;nan
64675;BME280;51090;51.512;11.332;2022-08-21T07:53:38;99548.81;;;26.70;nan
64675;BME280;51090;51.512;11.332;2022-08-21T07:56:05;99550.22;;;26.67;nan
64675;BME280;51090;51.512;11.332;2022-08-21T07:58:32;99555.19;;;26.60;nan
64675;BME280;51090;51.512;11.332;2022-08-21T08:00:58;99549.00;;;26.55;nan
64675;BME280;51090;51.512;11.332;2022-08-21T08:03:23;99547.88;;;26.56;nan
64675;BME280;51090;51.512;11.332;2022-08-21T08:05:49;99549.78;;;26.55;nan
64675;BME280;51090;51.512;11.332;2022-08-21T08:08:16;99553.31;;;26.56;nan
64675;BME280;51090;51.512;11.332;2022-08-21T08:10:42;99546.34;;;26.44;nan
64675;BME280;51090;51.512;11.332;2022-08-21T08:13:08;99543.91;;;26.43;nan
64675;BME280;51090;51.512;11.332;2022-08-21T08:15:34;99545.47;;;26.54;nan
64675;BME280;51090;51.512;11.332;2022-08-21T08:17:59;99548.41;;;26.82;nan
64675;BME280;51090;51.512;11.332;2022-08-21T08:20:26;99553.03;;;27.05;nan
64675;BME280;51090;51.512;11.332;2022-08-21T08:22:53;99543.91;;;27.15;nan
64675;BME280;51090;51.512;11.332;2022-08-21T08:25:21;99546.47;;;27.30;nan
64675;BME280;51090;51.512;11.332;2022-08-21T08:27:48;99543.13;;;27.39;nan
64675;BME280;51090;51.512;11.332;2022-08-21T08:30:17;99541.56;;;27.51;nan
64675;BME280;51090;51.512;11.332;2022-08-21T08:32:44;99533.16;;;27.67;nan
64675;BME280;51090;51.512;11.332;2022-08-21T08:35:11;99537.03;;;27.79;nan
64675;BME280;51090;51.512;11.332;2022-08-21T08:37:38;99533.19;;;27.86;nan
64675;BME280;51090;51.512;11.332;2022-08-21T08:40:10;99533.28;;;27.94;nan
64675;BME280;51090;51.512;11.332;2022-08-21T08:42:37;99514.84;;;27.72;nan
64675;BME280;51090;51.512;11.332;2022-08-21T08:45:22;99525.88;;;27.81;nan
64675;BME280;51090;51.512;11.332;2022-08-21T08:47:56;99523.28;;;27.71;nan
64675;BME280;51090;51.512;11.332;2022-08-21T08:53:45;99534.19;;;27.33;nan
64675;BME280;51090;51.512;11.332;2022-08-21T08:56:12;99532.59;;;27.32;nan
64675;BME280;51090;51.512;11.332;2022-08-21T08:58:42;99529.72;;;27.42;nan
64675;BME280;51090;51.512;11.332;2022-08-21T09:01:18;99528.53;;;27.67;nan
64675;BME280;51090;51.512;11.332;2022-08-21T09:03:46;99524.13;;;27.90;nan
64675;BME280;51090;51.512;11.332;2022-08-21T09:06:34;99525.28;;;28.17;nan
64675;BME280;51090;51.512;11.332;2022-08-21T09:12:17;99534.00;;;28.33;nan
64675;BME280;51090;51.512;11.332;2022-08-21T09:15:13;99530.84;;;28.26;nan
64675;BME280;51090;51.512;11.332;2022-08-21T09:18:28;99521.22;;;28.00;nan
64675;BME280;51090;51.512;11.332;2022-08-21T09:24:16;99517.47;;;27.77;nan
64675;BME280;51090;51.512;11.332;2022-08-21T09:29:36;99528.66;;;27.95;nan
64675;BME280;51090;51.512;11.332;2022-08-21T09:32:18;99515.06;;;28.09;nan
64675;BME280;51090;51.512;11.332;2022-08-21T09:35:10;99518.63;;;28.23;nan
64675;BME280;51090;51.512;11.332;2022-08-21T09:38:06;99516.94;;;28.41;nan
64675;BME280;51090;51.512;11.332;2022-08-21T09:40:42;99526.97;;;28.46;nan
64675;BME280;51090;51.512;11.332;2022-08-21T09:45:42;99519.81;;;28.50;nan
64675;BME280;51090;51.512;11.332;2022-08-21T09:48:28;99521.84;;;28.58;nan
64675;BME280;51090;51.512;11.332;2022-08-21T09:51:11;99515.06;;;28.55;nan
64675;BME280;51090;51.512;11.332;2022-08-21T09:53:42;99508.81;;;28.55;nan
64675;BME280;51090;51.512;11.332;2022-08-21T09:59:25;99498.72;;;28.55;nan
64675;BME280;51090;51.512;11.332;2022-08-21T10:01:53;99504.25;;;28.64;nan
64675;BME280;51090;51.512;11.332;2022-08-21T10:04:23;99512.34;;;28.83;nan
64675;BME280;51090;51.512;11.332;2022-08-21T10:06:50;99512.84;;;28.85;nan
64675;BME280;51090;51.512;11.332;2022-08-21T10:09:19;99506.69;;;28.93;nan
64675;BME280;51090;51.512;11.332;2022-08-21T10:17:37;99507.31;;;29.40;nan
64675;BME280;51090;51.512;11.332;2022-08-21T10:20:45;99505.16;;;29.65;nan
64675;BME280;51090;51.512;11.332;2022-08-21T10:35:37;99501.41;;;31.43;nan
64675;BME280;51090;51.512;11.332;2022-08-21T10:38:41;99500.38;;;32.00;nan
64675;BME280;51090;51.512;11.332;2022-08-21T10:41:42;99496.81;;;32.17;nan
64675;BME280;51090;51.512;11.332;2022-08-21T10:44:30;99494.06;;;32.17;nan
64675;BME280;51090;51.512;11.332;2022-08-21T10:52:42;99489.75;;;31.98;43.70
64675;BME280;51090;51.512;11.332;2022-08-21T10:55:31;99477.31;;;31.92;42.75
64675;BME280;51090;51.512;11.332;2022-08-21T10:58:10;99479.44;;;32.04;44.04
64675;BME280;51090;51.512;11.332;2022-08-21T11:00:49;99488.50;;;32.34;42.72
64675;BME280;51090;51.512;11.332;2022-08-21T11:06:25;99488.00;;;32.79;42.65
64675;BME280;51090;51.512;11.332;2022-08-21T11:09:30;99476.63;;;32.89;42.37
64675;BME280;51090;51.512;11.332;2022-08-21T11:11:59;99482.38;;;33.05;43.21
64675;BME280;51090;51.512;11.332;2022-08-21T11:14:55;99480.56;;;33.30;42.91
64675;BME280;51090;51.512;11.332;2022-08-21T11:17:41;99480.47;;;33.60;40.16
64675;BME280;51090;51.512;11.332;2022-08-21T11:20:24;99478.94;;;33.71;38.67
64675;BME280;51090;51.512;11.332;2022-08-21T11:23:10;99483.13;;;33.90;38.37
64675;BME280;51090;51.512;11.332;2022-08-21T11:25:44;99480.09;;;33.82;37.48
64675;BME280;51090;51.512;11.332;2022-08-21T11:28:26;99477.50;;;33.98;38.75
64675;BME280;51090;51.512;11.332;2022-08-21T11:31:24;99480.50;;;34.05;37.80
64675;BME280;51090;51.512;11.332;2022-08-21T11:34:21;99480.72;;;34.00;38.34
64675;BME280;51090;51.512;11.332;2022-08-21T11:37:05;99478.09;;;33.92;36.69
64675;BME280;51090;51.512;11.332;2022-08-21T11:45:56;99471.94;;;34.19;37.94
64675;BME280;51090;51.512;11.332;2022-08-21T11:48:40;99471.50;;;34.30;37.40
64675;BME280;51090;51.512;11.332;2022-08-21T11:51:12;99471.53;;;34.42;36.11
64675;BME280;51090;51.512;11.332;2022-08-21T11:56:38;99456.16;;;34.53;35.01
64675;BME280;51090;51.512;11.332;2022-08-21T11:59:22;99464.09;;;34.67;35.09
64675;BME280;51090;51.512;11.332;2022-08-21T12:01:50;99468.69;;;34.63;35.28
64675;BME280;51090;51.512;11.332;2022-08-21T12:04:28;99458.91;;;34.53;34.18
64675;BME280;51090;51.512;11.332;2022-08-21T12:06:54;99459.94;;;34.24;34.49
64675;BME280;51090;51.512;11.332;2022-08-21T12:12:12;99453.41;;;33.83;36.96
64675;BME280;51090;51.512;11.332;2022-08-21T12:14:44;99459.22;;;33.48;37.12
64675;BME280;51090;51.512;11.332;2022-08-21T12:17:23;99451.28;;;33.13;37.51
64675;BME280;51090;51.512;11.332;2022-08-21T12:20:01;99458.31;;;32.93;38.11
64675;BME280;51090;51.512;11.332;2022-08-21T12:22:41;99463.50;;;32.95;38.07
64675;BME280;51090;51.512;11.332;2022-08-21T12:25:15;99458.81;;;32.95;38.22
64675;BME280;51090;51.512;11.332;2022-08-21T12:27:51;99457.41;;;32.89;39.29
64675;BME280;51090;51.512;11.332;2022-08-21T12:30:36;99442.53;;;32.90;40.51
64675;BME280;51090;51.512;11.332;2022-08-21T12:33:28;99449.16;;;32.89;39.24
64675;BME280;51090;51.512;11.332;2022-08-21T12:38:39;99447.53;;;32.88;37.38
64675;BME280;51090;51.512;11.332;2022-08-21T12:41:17;99435.66;;;33.05;41.54
64675;BME280;51090;51.512;11.332;2022-08-21T12:43:57;99441.06;;;33.14;36.87
64675;BME280;51090;51.512;11.332;2022-08-21T12:46:46;99438.47;;;33.17;36.05
64675;BME280;51090;51.512;11.332;2022-08-21T12:49:19;99441.44;;;33.12;39.52
64675;BME280;51090;51.512;11.332;2022-08-21T12:52:16;99435.53;;;33.02;37.07
64675;BME280;51090;51.512;11.332;2022-08-21T12:54:45;99432.00;;;32.92;38.67
64675;BME280;51090;51.512;11.332;2022-08-21T12:57:39;99434.66;;;33.10;40.03
64675;BME280;51090;51.512;11.332;2022-08-21T13:00:09;99430.97;;;33.06;38.00
64675;BME280;51090;51.512;11.332;2022-08-21T13:02:47;99428.50;;;32.83;32.03
64675;BME280;51090;51.512;11.332;2022-08-21T13:05:35;99422.72;;;33.06;34.93
64675;BME280;51090;51.512;11.332;2022-08-21T13:08:08;99417.03;;;33.11;34.17
64675;BME280;51090;51.512;11.332;2022-08-21T13:10:36;99423.72;;;33.43;37.00
64675;BME280;51090;51.512;11.332;2022-08-21T13:13:10;99417.75;;;33.74;34.84
64675;BME280;51090;51.512;11.332;2022-08-21T13:15:40;99417.03;;;33.65;34.08
64675;BME280;51090;51.512;11.332;2022-08-21T13:18:06;99414.09;;;33.16;34.59
64675;BME280;51090;51.512;11.332;2022-08-21T13:20:38;99412.59;;;32.97;34.42
64675;BME280;51090;51.512;11.332;2022-08-21T13:23:29;99412.00;;;33.13;36.10
64675;BME280;51090;51.512;11.332;2022-08-21T13:25:55;99404.31;;;33.06;36.29
64675;BME280;51090;51.512;11.332;2022-08-21T13:28:22;99410.75;;;33.10;36.05
64675;BME280;51090;51.512;11.332;2022-08-21T13:30:53;99397.75;;;33.20;37.55
64675;BME280;51090;51.512;11.332;2022-08-21T13:33:24;99417.63;;;33.37;38.22
64675;BME280;51090;51.512;11.332;2022-08-21T13:38:35;99400.88;;;33.30;35.81
64675;BME280;51090;51.512;11.332;2022-08-21T13:43:50;99400.03;;;33.17;31.58
64675;BME280;51090;51.512;11.332;2022-08-21T13:46:29;99395.13;;;33.23;33.60
64675;BME280;51090;51.512;11.332;2022-08-21T13:48:56;99393.97;;;33.24;35.84
64675;BME280;51090;51.512;11.332;2022-08-21T13:51:23;99402.50;;;33.10;36.40
64675;BME280;51090;51.512;11.332;2022-08-21T13:53:51;99396.22;;;33.10;34.96
64675;BME280;51090;51.512;11.332;2022-08-21T13:56:29;99392.31;;;33.11;36.48
64675;BME280;51090;51.512;11.332;2022-08-21T13:58:57;99393.16;;;33.24;36.25
64675;BME280;51090;51.512;11.332;2022-08-21T14:04:25;99393.69;;;33.71;35.07
64675;BME280;51090;51.512;11.332;2022-08-21T14:06:52;99394.97;;;33.98;35.53
64675;BME280;51090;51.512;11.332;2022-08-21T14:09:32;99384.13;;;34.14;33.39
64675;BME280;51090;51.512;11.332;2022-08-21T14:12:01;99388.28;;;34.33;34.92
64675;BME280;51090;51.512;11.332;2022-08-21T14:14:34;99383.09;;;34.43;34.25
64675;BME280;51090;51.512;11.332;2022-08-21T14:17:07;99380.13;;;34.36;34.80
64675;BME280;51090;51.512;11.332;2022-08-21T14:19:46;99381.44;;;33.93;34.13
64675;BME280;51090;51.512;11.332;2022-08-21T14:30:29;99373.34;;;33.51;35.16
64675;BME280;51090;51.512;11.332;2022-08-21T14:32:57;99362.09;;;33.44;35.66
64675;BME280;51090;51.512;11.332;2022-08-21T14:35:23;99375.34;;;33.63;35.59
64675;BME280;51090;51.512;11.332;2022-08-21T14:37:49;99374.53;;;33.63;34.77
64675;BME280;51090;51.512;11.332;2022-08-21T14:40:17;99374.09;;;33.73;34.95